Time,TemperatureF,DewpointF,PressureIn,WindDirection,WindDirectionDegrees,WindSpeedMPH,WindSpeedGustMPH,Humidity,HourlyPrecipIn,Conditions,Clouds,dailyrainin,SoftwareType,DateUTC
2013-02-17 00:01:00,54.0,-99.9,-100.00,West,269,14.0,17.0,-999,-99.99,,,-99.99,,2013-02-17 08:01:00,
2013-02-17 00:22:00,54.0,-99.9,-100.00,West,281,10.0,16.0,-999,-99.99,,,-99.99,,2013-02-17 08:22:00,
2013-02-17 01:02:00,54.0,-99.9,-100.00,West,269,14.0,16.0,-999,-99.99,,,-99.99,,2013-02-17 09:02:00,
2013-02-17 03:22:00,51.0,-99.9,-100.00,WSW,245,17.0,22.0,-999,-99.99,,,-99.99,,2013-02-17 11:22:00,
2013-02-17 04:03:00,49.0,-99.9,-100.00,West,261,14.0,23.0,-999,-99.99,,,-99.99,,2013-02-17 12:03:00,
2013-02-17 04:11:00,49.0,-99.9,-100.00,West,261,14.0,23.0,-999,-99.99,,,-99.99,,2013-02-17 12:11:00,
2013-02-17 04:32:00,48.0,-99.9,-100.00,WSW,247,21.0,22.0,-999,-99.99,,,-99.99,,2013-02-17 12:32:00,
2013-02-17 07:02:00,49.0,-99.9,-100.00,SW,217,14.0,18.0,-999,-99.99,,,-99.99,,2013-02-17 15:02:00,
2013-02-17 08:30:00,54.0,-99.9,-100.00,SW,232,8.0,14.0,-999,-99.99,,,-99.99,,2013-02-17 16:30:00,
2013-02-17 09:22:00,54.0,-99.9,-100.00,SW,232,8.0,14.0,-999,-99.99,,,-99.99,,2013-02-17 17:22:00,
2013-02-17 11:32:00,62.0,-99.9,-100.00,West,268,25.0,30.0,-999,-99.99,,,-99.99,,2013-02-17 19:32:00,
2013-02-17 11:42:00,62.0,-99.9,-100.00,West,268,25.0,30.0,-999,-99.99,,,-99.99,,2013-02-17 19:42:00,
2013-02-17 11:52:00,62.0,-99.9,-100.00,West,268,25.0,30.0,-999,-99.99,,,-99.99,,2013-02-17 19:52:00,
2013-02-17 12:22:00,63.0,-99.9,-100.00,WSW,253,13.0,23.0,-999,-99.99,,,-99.99,,2013-02-17 20:22:00,
2013-02-17 12:32:00,63.0,-99.9,-100.00,WSW,253,13.0,23.0,-999,-99.99,,,-99.99,,2013-02-17 20:32:00,
2013-02-17 14:40:00,64.0,-99.9,-100.00,WSW,253,18.0,29.0,-999,-99.99,,,-99.99,,2013-02-17 22:40:00,
2013-02-17 15:22:00,64.0,-99.9,-100.00,WSW,253,18.0,29.0,-999,-99.99,,,-99.99,,2013-02-17 23:22:00,
2013-02-17 15:32:00,64.0,-99.9,-100.00,WSW,253,18.0,29.0,-999,-99.99,,,-99.99,,2013-02-17 23:32:00,
2013-02-17 15:40:00,61.0,-99.9,-100.00,WSW,247,21.0,40.0,-999,-99.99,,,-99.99,,2013-02-17 23:40:00,
2013-02-17 15:52:00,62.0,-99.9,-100.00,West,268,27.0,30.0,-999,-99.99,,,-99.99,,2013-02-17 23:52:00,
2013-02-17 16:02:00,62.0,-99.9,-100.00,West,278,29.0,35.0,-999,-99.99,,,-99.99,,2013-02-18 00:02:00,
2013-02-17 16:12:00,62.0,-99.9,-100.00,West,278,29.0,35.0,-999,-99.99,,,-99.99,,2013-02-18 00:12:00,
2013-02-17 16:22:00,61.0,-99.9,-100.00,WSW,247,21.0,40.0,-999,-99.99,,,-99.99,,2013-02-18 00:22:00,
2013-02-17 16:32:00,61.0,-99.9,-100.00,WSW,247,21.0,40.0,-999,-99.99,,,-99.99,,2013-02-18 00:32:00,
2013-02-17 17:40:00,54.0,-99.9,-100.00,West,263,15.0,23.0,-999,-99.99,,,-99.99,,2013-02-18 01:40:00,
2013-02-17 18:22:00,54.0,-99.9,-100.00,West,263,15.0,23.0,-999,-99.99,,,-99.99,,2013-02-18 02:22:00,
2013-02-17 18:32:00,54.0,-99.9,-100.00,West,263,15.0,23.0,-999,-99.99,,,-99.99,,2013-02-18 02:32:00,
2013-02-17 19:00:00,53.0,-99.9,-100.00,NE,34,6.0,7.0,-999,-99.99,,,-99.99,,2013-02-18 03:00:00,
2013-02-17 19:52:00,53.0,-99.9,-100.00,NE,34,6.0,7.0,-999,-99.99,,,-99.99,,2013-02-18 03:52:00,
2013-02-17 20:32:00,51.0,-99.9,-100.00,SW,234,19.0,21.0,-999,-99.99,,,-99.99,,2013-02-18 04:32:00,
2013-02-17 20:42:00,51.0,-99.9,-100.00,SW,234,19.0,21.0,-999,-99.99,,,-99.99,,2013-02-18 04:42:00,
2013-02-17 20:52:00,51.0,-99.9,-100.00,SW,234,19.0,21.0,-999,-99.99,,,-99.99,,2013-02-18 04:52:00,
2013-02-17 21:20:00,51.0,-99.9,-100.00,West,267,19.0,28.0,-999,-99.99,,,-99.99,,2013-02-18 05:20:00,
2013-02-17 22:02:00,51.0,-99.9,-100.00,West,267,19.0,28.0,-999,-99.99,,,-99.99,,2013-02-18 06:02:00,
2013-02-17 22:11:00,51.0,-99.9,-100.00,West,267,19.0,28.0,-999,-99.99,,,-99.99,,2013-02-18 06:11:00,
2013-02-17 23:00:00,53.0,-99.9,-100.00,West,262,9.0,14.0,-999,-99.99,,,-99.99,,2013-02-18 07:00:00,
2013-02-17 23:52:00,53.0,-99.9,-100.00,West,262,9.0,14.0,-999,-99.99,,,-99.99,,2013-02-18 07:52:00,